sensor_id;sensor_type;location;lat;lon;timestamp;temperature;humidity
51873;DHT22;52863;52.504;13.480;2022-12-05T00:02:54;3.00;99.90
51873;DHT22;52863;52.504;13.480;2022-12-05T00:10:15;3.00;99.90
51873;DHT22;52863;52.504;13.480;2022-12-05T00:17:38;3.10;99.90
51873;DHT22;52863;52.504;13.480;2022-12-05T00:20:08;3.00;99.90
51873;DHT22;52863;52.504;13.480;2022-12-05T00:25:03;3.10;99.90
51873;DHT22;52863;52.504;13.480;2022-12-05T00:34:51;2.90;99.90
51873;DHT22;52863;52.504;13.480;2022-12-05T00:37:18;3.10;99.90
51873;DHT22;52863;52.504;13.480;2022-12-05T00:47:06;2.90;99.90
51873;DHT22;52863;52.504;13.480;2022-12-05T00:54:27;3.00;99.90
51873;DHT22;52863;52.504;13.480;2022-12-05T00:59:21;3.10;99.90
51873;DHT22;52863;52.504;13.480;2022-12-05T01:01:49;3.10;99.90
51873;DHT22;52863;52.504;13.480;2022-12-05T01:04:19;3.20;99.90
51873;DHT22;52863;52.504;13.480;2022-12-05T01:06:46;3.10;99.90
51873;DHT22;52863;52.504;13.480;2022-12-05T01:09:14;3.20;99.90
51873;DHT22;52863;52.504;13.480;2022-12-05T01:11:42;3.30;99.90
51873;DHT22;52863;52.504;13.480;2022-12-05T01:14:10;3.20;99.90
51873;DHT22;52863;52.504;13.480;2022-12-05T01:16:39;3.20;99.90
51873;DHT22;52863;52.504;13.480;2022-12-05T01:19:10;3.20;99.90
51873;DHT22;52863;52.504;13.480;2022-12-05T01:24:10;3.10;99.90
51873;DHT22;52863;52.504;13.480;2022-12-05T01:26:41;3.10;99.90
51873;DHT22;52863;52.504;13.480;2022-12-05T01:29:23;3.10;99.90
51873;DHT22;52863;52.504;13.480;2022-12-05T01:31:53;3.10;99.90
51873;DHT22;52863;52.504;13.480;2022-12-05T01:37:00;3.00;99.90
51873;DHT22;52863;52.504;13.480;2022-12-05T01:42:03;3.10;99.90
51873;DHT22;52863;52.504;13.480;2022-12-05T01:45:03;3.10;99.90
51873;DHT22;52863;52.504;13.480;2022-12-05T01:47:38;3.10;99.90
51873;DHT22;52863;52.504;13.480;2022-12-05T01:50:07;3.10;99.90
51873;DHT22;52863;52.504;13.480;2022-12-05T01:52:38;3.10;99.90
51873;DHT22;52863;52.504;13.480;2022-12-05T01:55:10;3.10;99.90
51873;DHT22;52863;52.504;13.480;2022-12-05T02:00:23;3.10;99.90
51873;DHT22;52863;52.504;13.480;2022-12-05T02:03:08;3.10;99.90
51873;DHT22;52863;52.504;13.480;2022-12-05T02:08:24;3.10;99.90
51873;DHT22;52863;52.504;13.480;2022-12-05T02:11:08;3.10;99.90
51873;DHT22;52863;52.504;13.480;2022-12-05T02:13:57;3.10;99.90
51873;DHT22;52863;52.504;13.480;2022-12-05T02:16:40;3.10;99.90
51873;DHT22;52863;52.504;13.480;2022-12-05T02:19:39;3.10;99.90
51873;DHT22;52863;52.504;13.480;2022-12-05T02:25:42;3.10;99.90
51873;DHT22;52863;52.504;13.480;2022-12-05T02:28:47;2.70;99.90
51873;DHT22;52863;52.504;13.480;2022-12-05T02:31:21;3.10;99.90
51873;DHT22;52863;52.504;13.480;2022-12-05T02:33:59;3.10;99.90
51873;DHT22;52863;52.504;13.480;2022-12-05T02:36:40;3.10;99.90
51873;DHT22;52863;52.504;13.480;2022-12-05T02:39:25;3.10;99.90
51873;DHT22;52863;52.504;13.480;2022-12-05T02:42:08;3.10;99.90
51873;DHT22;52863;52.504;13.480;2022-12-05T02:44:42;3.10;99.90
51873;DHT22;52863;52.504;13.480;2022-12-05T02:47:17;5.20;99.90
51873;DHT22;52863;52.504;13.480;2022-12-05T02:49:51;3.10;99.90
51873;DHT22;52863;52.504;13.480;2022-12-05T02:52:22;3.10;99.90
51873;DHT22;52863;52.504;13.480;2022-12-05T02:54:52;3.20;99.90
51873;DHT22;52863;52.504;13.480;2022-12-05T02:57:21;3.20;99.90
51873;DHT22;52863;52.504;13.480;2022-12-05T03:02:29;3.10;99.90
51873;DHT22;52863;52.504;13.480;2022-12-05T03:05:01;4.90;99.90
51873;DHT22;52863;52.504;13.480;2022-12-05T03:07:42;3.10;99.90
51873;DHT22;52863;52.504;13.480;2022-12-05T03:10:17;3.20;99.90
51873;DHT22;52863;52.504;13.480;2022-12-05T03:12:50;3.10;99.90
51873;DHT22;52863;52.504;13.480;2022-12-05T03:15:20;3.10;99.90
51873;DHT22;52863;52.504;13.480;2022-12-05T03:17:55;4.30;99.90
51873;DHT22;52863;52.504;13.480;2022-12-05T03:20:31;3.10;99.90
51873;DHT22;52863;52.504;13.480;2022-12-05T03:23:02;3.10;99.90
51873;DHT22;52863;52.504;13.480;2022-12-05T03:25:38;3.10;99.90
51873;DHT22;52863;52.504;13.480;2022-12-05T03:28:14;3.20;99.90
51873;DHT22;52863;52.504;13.480;2022-12-05T03:33:13;3.10;99.90
51873;DHT22;52863;52.504;13.480;2022-12-05T03:35:47;3.20;99.90
51873;DHT22;52863;52.504;13.480;2022-12-05T03:38:22;3.20;99.90
51873;DHT22;52863;52.504;13.480;2022-12-05T03:40:53;3.20;99.90
51873;DHT22;52863;52.504;13.480;2022-12-05T03:43:32;3.20;99.90
51873;DHT22;52863;52.504;13.480;2022-12-05T03:46:08;3.20;99.90
51873;DHT22;52863;52.504;13.480;2022-12-05T03:48:43;3.20;99.90
51873;DHT22;52863;52.504;13.480;2022-12-05T03:51:17;3.20;99.90
51873;DHT22;52863;52.504;13.480;2022-12-05T03:53:48;3.20;99.90
51873;DHT22;52863;52.504;13.480;2022-12-05T03:56:26;3.20;99.90
51873;DHT22;52863;52.504;13.480;2022-12-05T03:58:58;3.20;99.90
51873;DHT22;52863;52.504;13.480;2022-12-05T04:01:29;3.20;99.90
51873;DHT22;52863;52.504;13.480;2022-12-05T04:04:03;3.20;99.90
51873;DHT22;52863;52.504;13.480;2022-12-05T04:06:36;3.20;99.90
51873;DHT22;52863;52.504;13.480;2022-12-05T04:09:14;3.20;99.90
51873;DHT22;52863;52.504;13.480;2022-12-05T04:11:51;3.20;99.90
51873;DHT22;52863;52.504;13.480;2022-12-05T04:14:22;3.20;99.90
51873;DHT22;52863;52.504;13.480;2022-12-05T04:16:55;3.20;99.90
51873;DHT22;52863;52.504;13.480;2022-12-05T04:19:41;3.20;99.90
51873;DHT22;52863;52.504;13.480;2022-12-05T04:22:31;3.20;99.90
51873;DHT22;52863;52.504;13.480;2022-12-05T04:25:00;3.20;99.90
51873;DHT22;52863;52.504;13.480;2022-12-05T04:27:55;3.20;99.90
51873;DHT22;52863;52.504;13.480;2022-12-05T04:30:24;3.10;99.90
51873;DHT22;52863;52.504;13.480;2022-12-05T04:32:59;3.20;99.90
51873;DHT22;52863;52.504;13.480;2022-12-05T04:35:31;3.30;99.90
51873;DHT22;52863;52.504;13.480;2022-12-05T04:38:03;3.20;99.90
51873;DHT22;52863;52.504;13.480;2022-12-05T04:40:36;3.20;99.90
51873;DHT22;52863;52.504;13.480;2022-12-05T04:43:05;3.20;99.90
51873;DHT22;52863;52.504;13.480;2022-12-05T04:45:32;3.30;99.90
51873;DHT22;52863;52.504;13.480;2022-12-05T04:48:06;3.10;99.90
51873;DHT22;52863;52.504;13.480;2022-12-05T04:50:38;3.20;99.90
51873;DHT22;52863;52.504;13.480;2022-12-05T04:55:35;3.30;99.90
51873;DHT22;52863;52.504;13.480;2022-12-05T04:58:06;3.40;99.90
51873;DHT22;52863;52.504;13.480;2022-12-05T05:00:39;3.30;99.90
51873;DHT22;52863;52.504;13.480;2022-12-05T05:03:15;3.30;99.90
51873;DHT22;52863;52.504;13.480;2022-12-05T05:05:46;3.30;99.90
51873;DHT22;52863;52.504;13.480;2022-12-05T05:08:18;3.30;99.90
51873;DHT22;52863;52.504;13.480;2022-12-05T05:10:51;3.30;99.90
51873;DHT22;52863;52.504;13.480;2022-12-05T05:13:20;3.30;99.90
51873;DHT22;52863;52.504;13.480;2022-12-05T05:18:13;3.80;99.90
51873;DHT22;52863;52.504;13.480;2022-12-05T05:20:40;3.20;99.90
51873;DHT22;52863;52.504;13.480;2022-12-05T05:23:07;3.30;99.90
51873;DHT22;52863;52.504;13.480;2022-12-05T05:25:34;2.90;99.90
51873;DHT22;52863;52.504;13.480;2022-12-05T05:35:21;3.20;99.90
51873;DHT22;52863;52.504;13.480;2022-12-05T05:37:48;3.20;99.90
51873;DHT22;52863;52.504;13.480;2022-12-05T05:40:16;3.30;99.90
51873;DHT22;52863;52.504;13.480;2022-12-05T05:42:43;3.10;99.90
51873;DHT22;52863;52.504;13.480;2022-12-05T05:45:11;3.30;99.90
51873;DHT22;52863;52.504;13.480;2022-12-05T05:50:05;3.30;99.90
51873;DHT22;52863;52.504;13.480;2022-12-05T05:52:33;3.20;99.90
51873;DHT22;52863;52.504;13.480;2022-12-05T05:57:28;3.20;99.90
51873;DHT22;52863;52.504;13.480;2022-12-05T05:59:55;3.30;99.90
51873;DHT22;52863;52.504;13.480;2022-12-05T06:07:17;4.00;99.90
51873;DHT22;52863;52.504;13.480;2022-12-05T06:09:43;3.40;99.90
51873;DHT22;52863;52.504;13.480;2022-12-05T06:14:38;3.10;99.90
51873;DHT22;52863;52.504;13.480;2022-12-05T06:19:31;3.20;99.90
51873;DHT22;52863;52.504;13.480;2022-12-05T06:21:58;3.30;99.90
51873;DHT22;52863;52.504;13.480;2022-12-05T06:31:52;3.30;99.90
51873;DHT22;52863;52.504;13.480;2022-12-05T06:49:01;3.40;99.90
51873;DHT22;52863;52.504;13.480;2022-12-05T06:58:49;3.30;99.90
51873;DHT22;52863;52.504;13.480;2022-12-05T07:01:19;3.30;99.90
51873;DHT22;52863;52.504;13.480;2022-12-05T07:04:06;3.30;99.90
51873;DHT22;52863;52.504;13.480;2022-12-05T07:06:33;3.20;99.90
51873;DHT22;52863;52.504;13.480;2022-12-05T07:09:00;3.30;99.90
51873;DHT22;52863;52.504;13.480;2022-12-05T07:13:54;3.20;99.90
51873;DHT22;52863;52.504;13.480;2022-12-05T07:21:16;3.30;99.90
51873;DHT22;52863;52.504;13.480;2022-12-05T07:23:44;3.30;99.90
51873;DHT22;52863;52.504;13.480;2022-12-05T07:26:12;3.30;99.90
51873;DHT22;52863;52.504;13.480;2022-12-05T07:31:08;3.30;99.90
51873;DHT22;52863;52.504;13.480;2022-12-05T07:33:35;3.30;99.90
51873;DHT22;52863;52.504;13.480;2022-12-05T07:36:04;3.30;99.90
51873;DHT22;52863;52.504;13.480;2022-12-05T07:38:32;3.30;99.90
51873;DHT22;52863;52.504;13.480;2022-12-05T07:45:53;3.40;99.90
51873;DHT22;52863;52.504;13.480;2022-12-05T07:55:41;3.20;99.90
51873;DHT22;52863;52.504;13.480;2022-12-05T08:12:50;3.30;99.90
51873;DHT22;52863;52.504;13.480;2022-12-05T08:15:17;3.00;99.90
51873;DHT22;52863;52.504;13.480;2022-12-05T08:20:11;3.20;99.90
51873;DHT22;52863;52.504;13.480;2022-12-05T08:22:38;3.00;99.90
51873;DHT22;52863;52.504;13.480;2022-12-05T08:25:06;3.30;99.90
51873;DHT22;52863;52.504;13.480;2022-12-05T08:27:33;3.10;99.90
51873;DHT22;52863;52.504;13.480;2022-12-05T08:30:00;3.30;99.90
51873;DHT22;52863;52.504;13.480;2022-12-05T08:39:47;3.20;99.90
51873;DHT22;52863;52.504;13.480;2022-12-05T08:47:09;3.20;99.90
51873;DHT22;52863;52.504;13.480;2022-12-05T08:49:35;2.70;99.90
51873;DHT22;52863;52.504;13.480;2022-12-05T08:59:24;3.80;99.90
51873;DHT22;52863;52.504;13.480;2022-12-05T09:04:21;3.20;99.90
51873;DHT22;52863;52.504;13.480;2022-12-05T09:11:44;3.20;99.90
51873;DHT22;52863;52.504;13.480;2022-12-05T09:14:14;3.20;99.90
51873;DHT22;52863;52.504;13.480;2022-12-05T09:16:43;3.20;99.90
51873;DHT22;52863;52.504;13.480;2022-12-05T09:19:12;3.20;99.90
51873;DHT22;52863;52.504;13.480;2022-12-05T09:21:41;3.30;99.90
51873;DHT22;52863;52.504;13.480;2022-12-05T09:24:09;3.90;99.90
51873;DHT22;52863;52.504;13.480;2022-12-05T09:29:03;3.30;99.90
51873;DHT22;52863;52.504;13.480;2022-12-05T09:31:30;3.10;99.90
51873;DHT22;52863;52.504;13.480;2022-12-05T09:36:26;3.30;99.90
51873;DHT22;52863;52.504;13.480;2022-12-05T09:38:54;3.30;99.90
51873;DHT22;52863;52.504;13.480;2022-12-05T09:41:39;3.30;99.90
51873;DHT22;52863;52.504;13.480;2022-12-05T09:44:39;3.20;99.90
51873;DHT22;52863;52.504;13.480;2022-12-05T09:47:13;3.30;99.90
51873;DHT22;52863;52.504;13.480;2022-12-05T09:49:46;3.40;99.90
51873;DHT22;52863;52.504;13.480;2022-12-05T09:52:21;3.30;99.90
51873;DHT22;52863;52.504;13.480;2022-12-05T09:54:50;3.40;99.90
51873;DHT22;52863;52.504;13.480;2022-12-05T09:57:23;3.40;99.90
51873;DHT22;52863;52.504;13.480;2022-12-05T10:00:00;3.40;99.90
51873;DHT22;52863;52.504;13.480;2022-12-05T10:02:34;3.60;99.90
51873;DHT22;52863;52.504;13.480;2022-12-05T10:05:09;3.50;99.90
51873;DHT22;52863;52.504;13.480;2022-12-05T10:07:45;3.40;99.90
51873;DHT22;52863;52.504;13.480;2022-12-05T10:10:28;3.50;99.90
51873;DHT22;52863;52.504;13.480;2022-12-05T10:13:12;3.40;99.90
51873;DHT22;52863;52.504;13.480;2022-12-05T10:15:43;3.90;99.90
51873;DHT22;52863;52.504;13.480;2022-12-05T10:18:18;3.40;99.90
51873;DHT22;52863;52.504;13.480;2022-12-05T10:23:26;3.40;99.90
51873;DHT22;52863;52.504;13.480;2022-12-05T10:26:19;3.40;99.90
51873;DHT22;52863;52.504;13.480;2022-12-05T10:28:51;3.50;99.90
51873;DHT22;52863;52.504;13.480;2022-12-05T10:31:35;3.50;99.90
51873;DHT22;52863;52.504;13.480;2022-12-05T10:34:13;3.50;99.90
51873;DHT22;52863;52.504;13.480;2022-12-05T10:37:01;6.30;99.90
51873;DHT22;52863;52.504;13.480;2022-12-05T10:41:58;3.50;99.90
51873;DHT22;52863;52.504;13.480;2022-12-05T10:49:22;3.50;99.90
51873;DHT22;52863;52.504;13.480;2022-12-05T10:54:21;3.50;99.90
51873;DHT22;52863;52.504;13.480;2022-12-05T10:56:53;3.50;99.90
51873;DHT22;52863;52.504;13.480;2022-12-05T10:59:23;3.60;99.90
51873;DHT22;52863;52.504;13.480;2022-12-05T11:01:52;3.60;99.90
51873;DHT22;52863;52.504;13.480;2022-12-05T11:04:25;3.70;99.90
51873;DHT22;52863;52.504;13.480;2022-12-05T11:06:56;3.60;99.90
51873;DHT22;52863;52.504;13.480;2022-12-05T11:09:27;3.70;99.90
51873;DHT22;52863;52.504;13.480;2022-12-05T11:12:05;4.90;99.90
51873;DHT22;52863;52.504;13.480;2022-12-05T11:17:05;3.70;99.90
51873;DHT22;52863;52.504;13.480;2022-12-05T11:19:34;3.80;99.90
51873;DHT22;52863;52.504;13.480;2022-12-05T11:22:04;3.70;99.90
51873;DHT22;52863;52.504;13.480;2022-12-05T11:24:34;3.70;99.90
51873;DHT22;52863;52.504;13.480;2022-12-05T11:27:19;3.70;99.90
51873;DHT22;52863;52.504;13.480;2022-12-05T11:29:57;3.70;99.90
51873;DHT22;52863;52.504;13.480;2022-12-05T11:35:20;3.80;99.90
51873;DHT22;52863;52.504;13.480;2022-12-05T11:37:52;3.80;99.90
51873;DHT22;52863;52.504;13.480;2022-12-05T11:40:29;3.80;99.90
51873;DHT22;52863;52.504;13.480;2022-12-05T11:43:21;3.80;99.90
51873;DHT22;52863;52.504;13.480;2022-12-05T11:46:04;3.80;99.90
51873;DHT22;52863;52.504;13.480;2022-12-05T11:48:55;0.70;99.90
51873;DHT22;52863;52.504;13.480;2022-12-05T11:51:37;3.60;99.90
51873;DHT22;52863;52.504;13.480;2022-12-05T11:57:51;3.70;99.90
51873;DHT22;52863;52.504;13.480;2022-12-05T12:00:23;3.80;99.90
51873;DHT22;52863;52.504;13.480;2022-12-05T12:03:24;3.70;99.90
51873;DHT22;52863;52.504;13.480;2022-12-05T12:06:07;3.80;99.90
51873;DHT22;52863;52.504;13.480;2022-12-05T12:08:41;3.80;99.90
51873;DHT22;52863;52.504;13.480;2022-12-05T12:11:17;3.80;99.90
51873;DHT22;52863;52.504;13.480;2022-12-05T12:13:56;3.80;99.90
51873;DHT22;52863;52.504;13.480;2022-12-05T12:16:33;3.80;99.90
51873;DHT22;52863;52.504;13.480;2022-12-05T12:19:16;3.80;99.90
51873;DHT22;52863;52.504;13.480;2022-12-05T12:21:57;3.70;99.90
51873;DHT22;52863;52.504;13.480;2022-12-05T12:24:37;3.70;99.90
51873;DHT22;52863;52.504;13.480;2022-12-05T12:27:14;3.70;99.90
51873;DHT22;52863;52.504;13.480;2022-12-05T12:29:53;3.70;99.90
51873;DHT22;52863;52.504;13.480;2022-12-05T12:32:30;3.70;99.90
51873;DHT22;52863;52.504;13.480;2022-12-05T12:35:17;3.80;99.90
51873;DHT22;52863;52.504;13.480;2022-12-05T12:37:56;3.80;99.90
51873;DHT22;52863;52.504;13.480;2022-12-05T12:40:29;3.80;99.90
51873;DHT22;52863;52.504;13.480;2022-12-05T12:43:09;3.70;99.90
51873;DHT22;52863;52.504;13.480;2022-12-05T12:46:12;3.70;99.90
51873;DHT22;52863;52.504;13.480;2022-12-05T12:48:54;3.70;99.90
51873;DHT22;52863;52.504;13.480;2022-12-05T12:51:25;3.70;99.90
51873;DHT22;52863;52.504;13.480;2022-12-05T12:54:05;3.70;99.90
51873;DHT22;52863;52.504;13.480;2022-12-05T12:56:43;3.70;99.90
51873;DHT22;52863;52.504;13.480;2022-12-05T12:59:27;3.70;99.90
51873;DHT22;52863;52.504;13.480;2022-12-05T13:02:03;3.90;99.90
51873;DHT22;52863;52.504;13.480;2022-12-05T13:04:34;3.80;99.90
51873;DHT22;52863;52.504;13.480;2022-12-05T13:07:11;3.80;99.90
51873;DHT22;52863;52.504;13.480;2022-12-05T13:09:42;4.70;99.90
51873;DHT22;52863;52.504;13.480;2022-12-05T13:12:25;3.80;99.90
51873;DHT22;52863;52.504;13.480;2022-12-05T13:14:55;3.90;99.90
51873;DHT22;52863;52.504;13.480;2022-12-05T13:19:52;3.90;99.90
51873;DHT22;52863;52.504;13.480;2022-12-05T13:22:22;3.90;99.90
51873;DHT22;52863;52.504;13.480;2022-12-05T13:24:50;3.80;99.90
51873;DHT22;52863;52.504;13.480;2022-12-05T13:27:19;3.90;99.90
51873;DHT22;52863;52.504;13.480;2022-12-05T13:29:49;3.90;99.90
51873;DHT22;52863;52.504;13.480;2022-12-05T13:32:27;4.00;99.90
51873;DHT22;52863;52.504;13.480;2022-12-05T13:34:56;3.90;99.90
51873;DHT22;52863;52.504;13.480;2022-12-05T13:37:27;3.90;99.90
51873;DHT22;52863;52.504;13.480;2022-12-05T13:40:30;3.90;99.90
51873;DHT22;52863;52.504;13.480;2022-12-05T13:43:19;4.00;99.90
51873;DHT22;52863;52.504;13.480;2022-12-05T13:46:02;3.90;99.90
51873;DHT22;52863;52.504;13.480;2022-12-05T13:48:32;4.00;99.90
51873;DHT22;52863;52.504;13.480;2022-12-05T13:51:02;4.00;99.90
51873;DHT22;52863;52.504;13.480;2022-12-05T13:53:35;4.00;99.90
51873;DHT22;52863;52.504;13.480;2022-12-05T13:56:05;4.00;99.90
51873;DHT22;52863;52.504;13.480;2022-12-05T13:58:41;4.00;99.90
51873;DHT22;52863;52.504;13.480;2022-12-05T14:01:44;4.00;99.90
51873;DHT22;52863;52.504;13.480;2022-12-05T14:04:46;4.00;99.90
51873;DHT22;52863;52.504;13.480;2022-12-05T14:07:39;4.10;99.90
51873;DHT22;52863;52.504;13.480;2022-12-05T14:10:08;4.00;99.90
51873;DHT22;52863;52.504;13.480;2022-12-05T14:12:51;3.60;99.90
51873;DHT22;52863;52.504;13.480;2022-12-05T14:15:32;4.00;99.90
51873;DHT22;52863;52.504;13.480;2022-12-05T14:18:11;4.00;99.90
51873;DHT22;52863;52.504;13.480;2022-12-05T14:20:56;4.10;99.90
51873;DHT22;52863;52.504;13.480;2022-12-05T14:23:44;4.00;99.90
51873;DHT22;52863;52.504;13.480;2022-12-05T14:26:31;4.00;99.90
51873;DHT22;52863;52.504;13.480;2022-12-05T14:32:04;4.00;99.90
51873;DHT22;52863;52.504;13.480;2022-12-05T14:34:35;4.10;99.90
51873;DHT22;52863;52.504;13.480;2022-12-05T14:37:07;4.10;99.90
51873;DHT22;52863;52.504;13.480;2022-12-05T14:39:38;4.00;99.90
51873;DHT22;52863;52.504;13.480;2022-12-05T14:42:20;3.50;99.90
51873;DHT22;52863;52.504;13.480;2022-12-05T14:44:49;4.00;99.90
51873;DHT22;52863;52.504;13.480;2022-12-05T14:47:19;3.50;99.90
51873;DHT22;52863;52.504;13.480;2022-12-05T14:49:55;4.00;99.90
51873;DHT22;52863;52.504;13.480;2022-12-05T14:52:25;4.20;99.90
51873;DHT22;52863;52.504;13.480;2022-12-05T14:54:56;4.10;99.90
51873;DHT22;52863;52.504;13.480;2022-12-05T14:57:24;4.10;99.90
51873;DHT22;52863;52.504;13.480;2022-12-05T14:59:56;4.00;99.90
51873;DHT22;52863;52.504;13.480;2022-12-05T15:02:27;3.90;99.90
51873;DHT22;52863;52.504;13.480;2022-12-05T15:04:59;4.00;99.90
51873;DHT22;52863;52.504;13.480;2022-12-05T15:07:31;4.00;99.90
51873;DHT22;52863;52.504;13.480;2022-12-05T15:10:00;1.10;99.90
51873;DHT22;52863;52.504;13.480;2022-12-05T15:12:33;4.00;99.90
51873;DHT22;52863;52.504;13.480;2022-12-05T15:15:12;4.10;99.90
51873;DHT22;52863;52.504;13.480;2022-12-05T15:17:47;4.00;99.90
51873;DHT22;52863;52.504;13.480;2022-12-05T15:20:24;4.00;99.90
51873;DHT22;52863;52.504;13.480;2022-12-05T15:25:26;4.00;99.90
51873;DHT22;52863;52.504;13.480;2022-12-05T15:27:55;4.00;99.90
51873;DHT22;52863;52.504;13.480;2022-12-05T15:32:49;4.00;99.90
51873;DHT22;52863;52.504;13.480;2022-12-05T15:35:24;4.00;99.90
51873;DHT22;52863;52.504;13.480;2022-12-05T15:37:54;4.00;99.90
51873;DHT22;52863;52.504;13.480;2022-12-05T15:40:23;4.40;99.90
51873;DHT22;52863;52.504;13.480;2022-12-05T15:42:52;4.00;99.90
51873;DHT22;52863;52.504;13.480;2022-12-05T15:45:23;3.90;99.90
51873;DHT22;52863;52.504;13.480;2022-12-05T15:47:52;4.10;99.90
51873;DHT22;52863;52.504;13.480;2022-12-05T15:50:25;4.10;99.90
51873;DHT22;52863;52.504;13.480;2022-12-05T15:52:55;4.00;99.90
51873;DHT22;52863;52.504;13.480;2022-12-05T15:55:26;4.00;99.90
51873;DHT22;52863;52.504;13.480;2022-12-05T15:57:59;4.00;99.90
51873;DHT22;52863;52.504;13.480;2022-12-05T16:00:39;4.10;99.90
51873;DHT22;52863;52.504;13.480;2022-12-05T16:03:12;4.00;99.90
51873;DHT22;52863;52.504;13.480;2022-12-05T16:05:46;4.00;99.90
51873;DHT22;52863;52.504;13.480;2022-12-05T16:08:14;4.30;99.90
51873;DHT22;52863;52.504;13.480;2022-12-05T16:13:13;4.00;99.90
51873;DHT22;52863;52.504;13.480;2022-12-05T16:15:43;4.00;99.90
51873;DHT22;52863;52.504;13.480;2022-12-05T16:18:24;4.10;99.90
51873;DHT22;52863;52.504;13.480;2022-12-05T16:23:25;4.00;99.90
51873;DHT22;52863;52.504;13.480;2022-12-05T16:25:52;4.00;99.90
51873;DHT22;52863;52.504;13.480;2022-12-05T16:28:20;4.00;99.90
51873;DHT22;52863;52.504;13.480;2022-12-05T16:30:59;4.10;99.90
51873;DHT22;52863;52.504;13.480;2022-12-05T16:33:28;4.10;99.90
51873;DHT22;52863;52.504;13.480;2022-12-05T16:38:24;4.10;99.90
51873;DHT22;52863;52.504;13.480;2022-12-05T16:40:54;4.00;99.90
51873;DHT22;52863;52.504;13.480;2022-12-05T16:43:28;4.10;99.90
51873;DHT22;52863;52.504;13.480;2022-12-05T16:46:41;3.90;99.90
51873;DHT22;52863;52.504;13.480;2022-12-05T16:52:00;4.10;99.90
51873;DHT22;52863;52.504;13.480;2022-12-05T16:56:55;4.00;99.90
51873;DHT22;52863;52.504;13.480;2022-12-05T16:59:23;4.10;99.90
51873;DHT22;52863;52.504;13.480;2022-12-05T17:01:52;4.10;99.90
51873;DHT22;52863;52.504;13.480;2022-12-05T17:09:12;4.30;99.90
51873;DHT22;52863;52.504;13.480;2022-12-05T17:11:41;4.20;99.90
51873;DHT22;52863;52.504;13.480;2022-12-05T17:14:12;4.10;99.90
51873;DHT22;52863;52.504;13.480;2022-12-05T17:16:40;4.10;99.90
51873;DHT22;52863;52.504;13.480;2022-12-05T17:19:08;4.20;99.90
51873;DHT22;52863;52.504;13.480;2022-12-05T17:21:35;4.20;99.90
51873;DHT22;52863;52.504;13.480;2022-12-05T17:24:02;4.40;99.90
51873;DHT22;52863;52.504;13.480;2022-12-05T17:28:55;4.10;99.90
51873;DHT22;52863;52.504;13.480;2022-12-05T17:31:24;4.40;99.90
51873;DHT22;52863;52.504;13.480;2022-12-05T17:33:53;4.20;99.90
51873;DHT22;52863;52.504;13.480;2022-12-05T17:36:20;3.90;99.90
51873;DHT22;52863;52.504;13.480;2022-12-05T17:38:47;4.20;99.90
51873;DHT22;52863;52.504;13.480;2022-12-05T17:41:16;5.40;99.90
51873;DHT22;52863;52.504;13.480;2022-12-05T17:43:43;4.30;99.90
51873;DHT22;52863;52.504;13.480;2022-12-05T17:46:12;4.30;99.90
51873;DHT22;52863;52.504;13.480;2022-12-05T17:51:08;4.20;99.90
51873;DHT22;52863;52.504;13.480;2022-12-05T17:53:37;4.40;99.90
51873;DHT22;52863;52.504;13.480;2022-12-05T17:56:04;4.30;99.90
51873;DHT22;52863;52.504;13.480;2022-12-05T18:00:59;4.30;99.90
51873;DHT22;52863;52.504;13.480;2022-12-05T18:03:28;4.20;99.90
51873;DHT22;52863;52.504;13.480;2022-12-05T18:10:50;4.30;99.90
51873;DHT22;52863;52.504;13.480;2022-12-05T18:15:46;4.30;99.90
51873;DHT22;52863;52.504;13.480;2022-12-05T18:18:15;4.30;99.90
51873;DHT22;52863;52.504;13.480;2022-12-05T18:20:43;4.30;99.90
51873;DHT22;52863;52.504;13.480;2022-12-05T18:23:10;4.30;99.90
51873;DHT22;52863;52.504;13.480;2022-12-05T18:28:05;4.40;99.90
51873;DHT22;52863;52.504;13.480;2022-12-05T18:30:31;4.40;99.90
51873;DHT22;52863;52.504;13.480;2022-12-05T18:35:25;4.50;99.90
51873;DHT22;52863;52.504;13.480;2022-12-05T18:40:33;4.50;99.90
51873;DHT22;52863;52.504;13.480;2022-12-05T18:43:03;4.40;99.90
51873;DHT22;52863;52.504;13.480;2022-12-05T18:50:46;4.50;99.90
51873;DHT22;52863;52.504;13.480;2022-12-05T18:58:27;4.60;99.90
51873;DHT22;52863;52.504;13.480;2022-12-05T19:08:15;4.70;99.90
51873;DHT22;52863;52.504;13.480;2022-12-05T19:10:41;4.70;99.90
51873;DHT22;52863;52.504;13.480;2022-12-05T19:15:36;4.70;99.90
51873;DHT22;52863;52.504;13.480;2022-12-05T19:20:30;4.40;99.90
51873;DHT22;52863;52.504;13.480;2022-12-05T19:25:28;4.70;99.90
51873;DHT22;52863;52.504;13.480;2022-12-05T19:30:22;4.70;99.90
51873;DHT22;52863;52.504;13.480;2022-12-05T19:32:50;4.70;99.90
51873;DHT22;52863;52.504;13.480;2022-12-05T19:35:18;4.80;99.90
51873;DHT22;52863;52.504;13.480;2022-12-05T19:40:13;4.70;99.90
51873;DHT22;52863;52.504;13.480;2022-12-05T19:45:07;4.70;99.90
51873;DHT22;52863;52.504;13.480;2022-12-05T19:50:09;4.80;99.90
51873;DHT22;52863;52.504;13.480;2022-12-05T19:55:04;4.80;99.90
51873;DHT22;52863;52.504;13.480;2022-12-05T19:57:30;5.00;99.90
51873;DHT22;52863;52.504;13.480;2022-12-05T20:02:25;5.00;99.90
51873;DHT22;52863;52.504;13.480;2022-12-05T20:07:19;4.80;99.90
51873;DHT22;52863;52.504;13.480;2022-12-05T20:12:13;4.40;99.90
51873;DHT22;52863;52.504;13.480;2022-12-05T20:17:07;4.80;99.90
51873;DHT22;52863;52.504;13.480;2022-12-05T20:24:28;4.80;99.90
51873;DHT22;52863;52.504;13.480;2022-12-05T20:26:55;4.90;99.90
51873;DHT22;52863;52.504;13.480;2022-12-05T20:29:22;4.90;99.90
51873;DHT22;52863;52.504;13.480;2022-12-05T20:31:49;4.80;99.90
51873;DHT22;52863;52.504;13.480;2022-12-05T20:36:48;4.70;99.90
51873;DHT22;52863;52.504;13.480;2022-12-05T20:41:43;4.60;99.90
51873;DHT22;52863;52.504;13.480;2022-12-05T20:44:13;4.70;99.90
51873;DHT22;52863;52.504;13.480;2022-12-05T20:46:40;4.70;99.90
51873;DHT22;52863;52.504;13.480;2022-12-05T20:49:08;4.70;99.90
51873;DHT22;52863;52.504;13.480;2022-12-05T20:54:02;4.50;99.90
51873;DHT22;52863;52.504;13.480;2022-12-05T20:56:32;4.60;99.90
51873;DHT22;52863;52.504;13.480;2022-12-05T20:59:01;4.50;99.90
51873;DHT22;52863;52.504;13.480;2022-12-05T21:01:30;4.60;99.90
51873;DHT22;52863;52.504;13.480;2022-12-05T21:06:27;4.50;99.90
51873;DHT22;52863;52.504;13.480;2022-12-05T21:08:56;4.50;99.90
51873;DHT22;52863;52.504;13.480;2022-12-05T21:11:23;4.30;99.90
51873;DHT22;52863;52.504;13.480;2022-12-05T21:16:20;4.30;99.90
51873;DHT22;52863;52.504;13.480;2022-12-05T21:21:17;4.30;99.90
51873;DHT22;52863;52.504;13.480;2022-12-05T21:23:46;4.40;99.90
51873;DHT22;52863;52.504;13.480;2022-12-05T21:26:15;4.40;99.90
51873;DHT22;52863;52.504;13.480;2022-12-05T21:28:43;4.40;99.90